sensor_id;sensor_type;location;lat;lon;timestamp;P1;durP1;ratioP1;P2;durP2;ratioP2
21046;SDS011;10682;50.874;3.656;2024-01-30T00:00:41;13.47;;;6.73;;
21046;SDS011;10682;50.874;3.656;2024-01-30T00:03:08;14.03;;;6.67;;
21046;SDS011;10682;50.874;3.656;2024-01-30T00:05:45;12.13;;;6.70;;
21046;SDS011;10682;50.874;3.656;2024-01-30T00:08:16;11.67;;;6.80;;
21046;SDS011;10682;50.874;3.656;2024-01-30T00:10:48;11.27;;;6.40;;
21046;SDS011;10682;50.874;3.656;2024-01-30T00:13:15;11.03;;;6.10;;
21046;SDS011;10682;50.874;3.656;2024-01-30T00:15:46;13.63;;;6.73;;
21046;SDS011;10682;50.874;3.656;2024-01-30T00:18:13;16.27;;;6.67;;
21046;SDS011;10682;50.874;3.656;2024-01-30T00:20:48;11.60;;;6.67;;
21046;SDS011;10682;50.874;3.656;2024-01-30T00:23:15;13.20;;;6.50;;
21046;SDS011;10682;50.874;3.656;2024-01-30T00:25:43;10.63;;;6.23;;
21046;SDS011;10682;50.874;3.656;2024-01-30T00:28:13;12.47;;;6.60;;
21046;SDS011;10682;50.874;3.656;2024-01-30T00:30:45;11.47;;;6.43;;
21046;SDS011;10682;50.874;3.656;2024-01-30T00:33:12;14.27;;;6.37;;
21046;SDS011;10682;50.874;3.656;2024-01-30T00:35:43;11.63;;;6.30;;
21046;SDS011;10682;50.874;3.656;2024-01-30T00:38:14;12.70;;;6.33;;
21046;SDS011;10682;50.874;3.656;2024-01-30T00:40:42;16.57;;;7.23;;
21046;SDS011;10682;50.874;3.656;2024-01-30T00:43:15;13.83;;;6.10;;
21046;SDS011;10682;50.874;3.656;2024-01-30T00:45:56;12.63;;;6.37;;
21046;SDS011;10682;50.874;3.656;2024-01-30T00:48:32;13.53;;;6.27;;
21046;SDS011;10682;50.874;3.656;2024-01-30T00:51:06;10.93;;;6.30;;
21046;SDS011;10682;50.874;3.656;2024-01-30T00:53:35;10.10;;;6.17;;
21046;SDS011;10682;50.874;3.656;2024-01-30T00:56:03;11.20;;;6.50;;
21046;SDS011;10682;50.874;3.656;2024-01-30T00:58:30;12.97;;;6.83;;
21046;SDS011;10682;50.874;3.656;2024-01-30T01:00:57;10.17;;;6.53;;
21046;SDS011;10682;50.874;3.656;2024-01-30T01:03:25;11.47;;;6.60;;
21046;SDS011;10682;50.874;3.656;2024-01-30T01:05:54;13.43;;;6.90;;
21046;SDS011;10682;50.874;3.656;2024-01-30T01:08:22;10.47;;;6.70;;
21046;SDS011;10682;50.874;3.656;2024-01-30T01:10:51;13.03;;;6.63;;
21046;SDS011;10682;50.874;3.656;2024-01-30T01:13:19;12.90;;;6.67;;
21046;SDS011;10682;50.874;3.656;2024-01-30T01:15:46;11.10;;;6.23;;
21046;SDS011;10682;50.874;3.656;2024-01-30T01:18:15;12.50;;;6.43;;
21046;SDS011;10682;50.874;3.656;2024-01-30T01:23:36;10.27;;;6.30;;
21046;SDS011;10682;50.874;3.656;2024-01-30T01:28:55;14.17;;;6.40;;
21046;SDS011;10682;50.874;3.656;2024-01-30T01:31:22;16.60;;;7.43;;
21046;SDS011;10682;50.874;3.656;2024-01-30T01:33:51;12.10;;;6.67;;
21046;SDS011;10682;50.874;3.656;2024-01-30T01:36:19;12.07;;;6.03;;
21046;SDS011;10682;50.874;3.656;2024-01-30T01:39:01;12.73;;;6.73;;
21046;SDS011;10682;50.874;3.656;2024-01-30T01:41:41;10.57;;;6.53;;
21046;SDS011;10682;50.874;3.656;2024-01-30T01:44:13;15.87;;;7.10;;
21046;SDS011;10682;50.874;3.656;2024-01-30T01:46:42;14.60;;;6.70;;
21046;SDS011;10682;50.874;3.656;2024-01-30T01:49:12;10.07;;;6.43;;
21046;SDS011;10682;50.874;3.656;2024-01-30T01:51:55;10.73;;;6.53;;
21046;SDS011;10682;50.874;3.656;2024-01-30T01:54:28;10.33;;;6.33;;
21046;SDS011;10682;50.874;3.656;2024-01-30T01:56:56;10.00;;;6.40;;
21046;SDS011;10682;50.874;3.656;2024-01-30T01:59:23;11.60;;;6.43;;
21046;SDS011;10682;50.874;3.656;2024-01-30T02:01:51;13.47;;;7.10;;
21046;SDS011;10682;50.874;3.656;2024-01-30T02:04:20;13.23;;;6.17;;
21046;SDS011;10682;50.874;3.656;2024-01-30T02:06:50;11.80;;;6.37;;
21046;SDS011;10682;50.874;3.656;2024-01-30T02:09:18;14.47;;;6.87;;
21046;SDS011;10682;50.874;3.656;2024-01-30T02:11:45;10.47;;;6.30;;
21046;SDS011;10682;50.874;3.656;2024-01-30T02:14:13;14.73;;;7.23;;
21046;SDS011;10682;50.874;3.656;2024-01-30T02:16:40;13.00;;;6.50;;
21046;SDS011;10682;50.874;3.656;2024-01-30T02:19:08;12.47;;;6.50;;
21046;SDS011;10682;50.874;3.656;2024-01-30T02:21:35;15.20;;;6.30;;
21046;SDS011;10682;50.874;3.656;2024-01-30T02:24:02;15.57;;;7.30;;
21046;SDS011;10682;50.874;3.656;2024-01-30T02:26:31;12.90;;;6.97;;
21046;SDS011;10682;50.874;3.656;2024-01-30T02:28:58;13.83;;;6.70;;
21046;SDS011;10682;50.874;3.656;2024-01-30T02:31:25;11.43;;;6.87;;
21046;SDS011;10682;50.874;3.656;2024-01-30T02:33:53;13.07;;;7.10;;
21046;SDS011;10682;50.874;3.656;2024-01-30T02:36:20;15.10;;;7.33;;
21046;SDS011;10682;50.874;3.656;2024-01-30T02:38:48;12.60;;;6.83;;
21046;SDS011;10682;50.874;3.656;2024-01-30T02:41:17;13.17;;;6.80;;
21046;SDS011;10682;50.874;3.656;2024-01-30T02:43:44;12.60;;;6.97;;
21046;SDS011;10682;50.874;3.656;2024-01-30T02:46:11;14.10;;;7.00;;
21046;SDS011;10682;50.874;3.656;2024-01-30T02:48:38;15.37;;;6.70;;
21046;SDS011;10682;50.874;3.656;2024-01-30T02:51:10;12.70;;;7.37;;
21046;SDS011;10682;50.874;3.656;2024-01-30T02:53:38;16.47;;;7.70;;
21046;SDS011;10682;50.874;3.656;2024-01-30T02:56:05;12.63;;;7.17;;
21046;SDS011;10682;50.874;3.656;2024-01-30T02:58:36;13.80;;;6.90;;
21046;SDS011;10682;50.874;3.656;2024-01-30T03:01:05;16.37;;;7.47;;
21046;SDS011;10682;50.874;3.656;2024-01-30T03:03:33;14.70;;;7.20;;
21046;SDS011;10682;50.874;3.656;2024-01-30T03:09:16;12.23;;;7.27;;
21046;SDS011;10682;50.874;3.656;2024-01-30T03:14:53;14.10;;;6.80;;
21046;SDS011;10682;50.874;3.656;2024-01-30T03:17:20;13.00;;;7.47;;
21046;SDS011;10682;50.874;3.656;2024-01-30T03:19:47;11.93;;;6.63;;
21046;SDS011;10682;50.874;3.656;2024-01-30T03:22:15;15.20;;;7.77;;
21046;SDS011;10682;50.874;3.656;2024-01-30T03:24:46;17.80;;;7.63;;
21046;SDS011;10682;50.874;3.656;2024-01-30T03:27:14;16.93;;;7.63;;
21046;SDS011;10682;50.874;3.656;2024-01-30T03:32:13;14.10;;;7.37;;
21046;SDS011;10682;50.874;3.656;2024-01-30T03:34:41;15.37;;;7.73;;
21046;SDS011;10682;50.874;3.656;2024-01-30T03:37:10;11.67;;;6.57;;
21046;SDS011;10682;50.874;3.656;2024-01-30T03:39:37;14.77;;;6.83;;
21046;SDS011;10682;50.874;3.656;2024-01-30T03:42:04;11.33;;;6.63;;
21046;SDS011;10682;50.874;3.656;2024-01-30T03:44:37;13.50;;;7.03;;
21046;SDS011;10682;50.874;3.656;2024-01-30T03:47:05;11.07;;;7.00;;
21046;SDS011;10682;50.874;3.656;2024-01-30T03:49:42;12.13;;;6.70;;
21046;SDS011;10682;50.874;3.656;2024-01-30T03:52:10;15.03;;;7.13;;
21046;SDS011;10682;50.874;3.656;2024-01-30T03:54:37;15.83;;;7.80;;
21046;SDS011;10682;50.874;3.656;2024-01-30T03:57:04;11.23;;;7.23;;
21046;SDS011;10682;50.874;3.656;2024-01-30T03:59:32;13.47;;;7.17;;
21046;SDS011;10682;50.874;3.656;2024-01-30T04:01:59;16.73;;;7.23;;
21046;SDS011;10682;50.874;3.656;2024-01-30T04:04:26;12.67;;;7.20;;
21046;SDS011;10682;50.874;3.656;2024-01-30T04:06:54;14.57;;;7.23;;
21046;SDS011;10682;50.874;3.656;2024-01-30T04:09:21;12.20;;;7.23;;
21046;SDS011;10682;50.874;3.656;2024-01-30T04:11:49;13.20;;;7.13;;
21046;SDS011;10682;50.874;3.656;2024-01-30T04:14:19;14.33;;;7.47;;
21046;SDS011;10682;50.874;3.656;2024-01-30T04:16:47;14.47;;;7.10;;
21046;SDS011;10682;50.874;3.656;2024-01-30T04:19:15;12.40;;;7.10;;
21046;SDS011;10682;50.874;3.656;2024-01-30T04:21:43;12.47;;;7.17;;
21046;SDS011;10682;50.874;3.656;2024-01-30T04:24:10;12.13;;;6.73;;
21046;SDS011;10682;50.874;3.656;2024-01-30T04:26:39;11.13;;;6.67;;
21046;SDS011;10682;50.874;3.656;2024-01-30T04:29:06;13.93;;;6.97;;
21046;SDS011;10682;50.874;3.656;2024-01-30T04:31:33;12.63;;;6.73;;
21046;SDS011;10682;50.874;3.656;2024-01-30T04:34:06;12.63;;;7.20;;
21046;SDS011;10682;50.874;3.656;2024-01-30T04:36:35;11.73;;;6.73;;
21046;SDS011;10682;50.874;3.656;2024-01-30T04:39:03;13.83;;;7.30;;
21046;SDS011;10682;50.874;3.656;2024-01-30T04:41:32;13.40;;;7.13;;
21046;SDS011;10682;50.874;3.656;2024-01-30T04:44:00;13.73;;;6.87;;
21046;SDS011;10682;50.874;3.656;2024-01-30T04:46:29;14.03;;;7.20;;
21046;SDS011;10682;50.874;3.656;2024-01-30T04:49:01;16.13;;;6.67;;
21046;SDS011;10682;50.874;3.656;2024-01-30T04:54:35;14.57;;;7.17;;
21046;SDS011;10682;50.874;3.656;2024-01-30T04:57:20;11.03;;;6.67;;
21046;SDS011;10682;50.874;3.656;2024-01-30T04:59:47;13.97;;;7.20;;
21046;SDS011;10682;50.874;3.656;2024-01-30T05:02:15;12.10;;;6.33;;
21046;SDS011;10682;50.874;3.656;2024-01-30T05:04:43;10.50;;;6.53;;
21046;SDS011;10682;50.874;3.656;2024-01-30T05:07:10;13.27;;;6.40;;
21046;SDS011;10682;50.874;3.656;2024-01-30T05:09:37;13.07;;;7.07;;
21046;SDS011;10682;50.874;3.656;2024-01-30T05:12:06;11.63;;;6.17;;
21046;SDS011;10682;50.874;3.656;2024-01-30T05:14:51;10.97;;;6.23;;
21046;SDS011;10682;50.874;3.656;2024-01-30T05:20:27;13.47;;;7.00;;
21046;SDS011;10682;50.874;3.656;2024-01-30T05:22:55;10.27;;;6.30;;
21046;SDS011;10682;50.874;3.656;2024-01-30T05:25:22;15.50;;;7.00;;
21046;SDS011;10682;50.874;3.656;2024-01-30T05:27:50;11.73;;;6.60;;
21046;SDS011;10682;50.874;3.656;2024-01-30T05:30:17;12.27;;;6.87;;
21046;SDS011;10682;50.874;3.656;2024-01-30T05:32:44;12.03;;;6.87;;
21046;SDS011;10682;50.874;3.656;2024-01-30T05:35:11;14.07;;;6.93;;
21046;SDS011;10682;50.874;3.656;2024-01-30T05:37:38;18.63;;;7.57;;
21046;SDS011;10682;50.874;3.656;2024-01-30T05:40:06;11.60;;;6.90;;
21046;SDS011;10682;50.874;3.656;2024-01-30T05:42:34;12.33;;;7.20;;
21046;SDS011;10682;50.874;3.656;2024-01-30T05:45:13;14.77;;;7.23;;
21046;SDS011;10682;50.874;3.656;2024-01-30T05:50:36;14.47;;;7.57;;
21046;SDS011;10682;50.874;3.656;2024-01-30T05:53:11;15.60;;;7.20;;
21046;SDS011;10682;50.874;3.656;2024-01-30T05:55:41;13.67;;;6.53;;
21046;SDS011;10682;50.874;3.656;2024-01-30T05:58:08;11.00;;;6.83;;
21046;SDS011;10682;50.874;3.656;2024-01-30T06:00:43;14.07;;;6.80;;
21046;SDS011;10682;50.874;3.656;2024-01-30T06:03:21;12.43;;;6.73;;
21046;SDS011;10682;50.874;3.656;2024-01-30T06:05:48;16.87;;;7.33;;
21046;SDS011;10682;50.874;3.656;2024-01-30T06:08:23;12.40;;;6.40;;
21046;SDS011;10682;50.874;3.656;2024-01-30T06:10:50;17.20;;;6.67;;
21046;SDS011;10682;50.874;3.656;2024-01-30T06:13:18;12.50;;;7.23;;
21046;SDS011;10682;50.874;3.656;2024-01-30T06:15:46;12.17;;;6.73;;
21046;SDS011;10682;50.874;3.656;2024-01-30T06:18:13;12.90;;;6.70;;
21046;SDS011;10682;50.874;3.656;2024-01-30T06:20:40;13.10;;;7.63;;
21046;SDS011;10682;50.874;3.656;2024-01-30T06:23:07;13.90;;;6.73;;
21046;SDS011;10682;50.874;3.656;2024-01-30T06:25:34;11.83;;;6.50;;
21046;SDS011;10682;50.874;3.656;2024-01-30T06:28:01;13.70;;;7.00;;
21046;SDS011;10682;50.874;3.656;2024-01-30T06:30:29;12.30;;;6.47;;
21046;SDS011;10682;50.874;3.656;2024-01-30T06:32:57;14.10;;;7.17;;
21046;SDS011;10682;50.874;3.656;2024-01-30T06:35:26;10.97;;;6.50;;
21046;SDS011;10682;50.874;3.656;2024-01-30T06:41:15;13.90;;;6.73;;
21046;SDS011;10682;50.874;3.656;2024-01-30T06:43:56;12.10;;;7.03;;
21046;SDS011;10682;50.874;3.656;2024-01-30T06:46:23;15.33;;;7.27;;
21046;SDS011;10682;50.874;3.656;2024-01-30T06:48:50;13.07;;;6.67;;
21046;SDS011;10682;50.874;3.656;2024-01-30T06:51:17;13.10;;;6.63;;
21046;SDS011;10682;50.874;3.656;2024-01-30T06:53:44;13.53;;;7.10;;
21046;SDS011;10682;50.874;3.656;2024-01-30T06:56:11;11.70;;;7.30;;
21046;SDS011;10682;50.874;3.656;2024-01-30T06:58:38;15.70;;;6.97;;
21046;SDS011;10682;50.874;3.656;2024-01-30T07:01:17;12.17;;;6.43;;
21046;SDS011;10682;50.874;3.656;2024-01-30T07:03:51;16.20;;;6.80;;
21046;SDS011;10682;50.874;3.656;2024-01-30T07:06:19;12.93;;;7.40;;
21046;SDS011;10682;50.874;3.656;2024-01-30T07:08:47;14.70;;;7.37;;
21046;SDS011;10682;50.874;3.656;2024-01-30T07:11:19;12.87;;;7.07;;
21046;SDS011;10682;50.874;3.656;2024-01-30T07:13:48;14.13;;;6.80;;
21046;SDS011;10682;50.874;3.656;2024-01-30T07:16:17;13.53;;;6.83;;
21046;SDS011;10682;50.874;3.656;2024-01-30T07:18:44;13.90;;;6.57;;
21046;SDS011;10682;50.874;3.656;2024-01-30T07:21:11;15.93;;;6.70;;
21046;SDS011;10682;50.874;3.656;2024-01-30T07:23:39;13.93;;;6.60;;
21046;SDS011;10682;50.874;3.656;2024-01-30T07:26:06;16.80;;;7.23;;
21046;SDS011;10682;50.874;3.656;2024-01-30T07:28:33;17.60;;;6.97;;
21046;SDS011;10682;50.874;3.656;2024-01-30T07:31:01;15.27;;;6.90;;
21046;SDS011;10682;50.874;3.656;2024-01-30T07:33:28;16.33;;;7.00;;
21046;SDS011;10682;50.874;3.656;2024-01-30T07:35:55;12.13;;;7.03;;
21046;SDS011;10682;50.874;3.656;2024-01-30T07:38:24;15.57;;;7.60;;
21046;SDS011;10682;50.874;3.656;2024-01-30T07:40:51;12.07;;;7.40;;
21046;SDS011;10682;50.874;3.656;2024-01-30T07:43:19;16.60;;;8.03;;
21046;SDS011;10682;50.874;3.656;2024-01-30T07:45:46;17.37;;;7.10;;
21046;SDS011;10682;50.874;3.656;2024-01-30T07:48:14;17.70;;;8.00;;
21046;SDS011;10682;50.874;3.656;2024-01-30T07:50:41;18.27;;;7.67;;
21046;SDS011;10682;50.874;3.656;2024-01-30T07:53:09;20.43;;;8.10;;
21046;SDS011;10682;50.874;3.656;2024-01-30T07:55:36;21.60;;;7.40;;
21046;SDS011;10682;50.874;3.656;2024-01-30T07:58:03;14.77;;;7.57;;
21046;SDS011;10682;50.874;3.656;2024-01-30T08:00:31;17.80;;;7.60;;
21046;SDS011;10682;50.874;3.656;2024-01-30T08:02:58;18.60;;;7.90;;
21046;SDS011;10682;50.874;3.656;2024-01-30T08:05:25;14.60;;;7.80;;
21046;SDS011;10682;50.874;3.656;2024-01-30T08:07:53;19.23;;;7.77;;
21046;SDS011;10682;50.874;3.656;2024-01-30T08:10:21;14.90;;;7.83;;
21046;SDS011;10682;50.874;3.656;2024-01-30T08:12:48;17.60;;;8.83;;
21046;SDS011;10682;50.874;3.656;2024-01-30T08:15:15;17.37;;;8.13;;
21046;SDS011;10682;50.874;3.656;2024-01-30T08:17:42;20.57;;;8.27;;
21046;SDS011;10682;50.874;3.656;2024-01-30T08:23:40;16.50;;;8.93;;
21046;SDS011;10682;50.874;3.656;2024-01-30T08:29:05;19.50;;;8.97;;
21046;SDS011;10682;50.874;3.656;2024-01-30T08:31:32;18.30;;;9.13;;
21046;SDS011;10682;50.874;3.656;2024-01-30T08:33:59;20.17;;;8.90;;
21046;SDS011;10682;50.874;3.656;2024-01-30T08:36:27;24.47;;;8.60;;
21046;SDS011;10682;50.874;3.656;2024-01-30T08:38:54;19.50;;;9.27;;
21046;SDS011;10682;50.874;3.656;2024-01-30T08:41:27;20.80;;;8.97;;
21046;SDS011;10682;50.874;3.656;2024-01-30T08:43:54;19.60;;;9.70;;
21046;SDS011;10682;50.874;3.656;2024-01-30T08:46:21;25.43;;;10.10;;
21046;SDS011;10682;50.874;3.656;2024-01-30T08:48:56;18.90;;;10.27;;
21046;SDS011;10682;50.874;3.656;2024-01-30T08:51:25;23.37;;;8.53;;
21046;SDS011;10682;50.874;3.656;2024-01-30T08:53:53;22.10;;;9.00;;
21046;SDS011;10682;50.874;3.656;2024-01-30T08:56:20;21.83;;;8.93;;
21046;SDS011;10682;50.874;3.656;2024-01-30T08:58:47;26.43;;;9.07;;
21046;SDS011;10682;50.874;3.656;2024-01-30T09:01:14;24.17;;;9.40;;
21046;SDS011;10682;50.874;3.656;2024-01-30T09:03:42;22.77;;;8.57;;
21046;SDS011;10682;50.874;3.656;2024-01-30T09:06:12;20.57;;;8.43;;
21046;SDS011;10682;50.874;3.656;2024-01-30T09:08:39;17.40;;;8.33;;
21046;SDS011;10682;50.874;3.656;2024-01-30T09:11:09;25.67;;;8.70;;
21046;SDS011;10682;50.874;3.656;2024-01-30T09:13:39;17.43;;;8.33;;
21046;SDS011;10682;50.874;3.656;2024-01-30T09:16:06;21.87;;;8.47;;
21046;SDS011;10682;50.874;3.656;2024-01-30T09:18:34;17.87;;;8.20;;
21046;SDS011;10682;50.874;3.656;2024-01-30T09:21:01;20.57;;;7.87;;
21046;SDS011;10682;50.874;3.656;2024-01-30T09:23:28;24.13;;;8.03;;
21046;SDS011;10682;50.874;3.656;2024-01-30T09:25:55;24.60;;;7.67;;
21046;SDS011;10682;50.874;3.656;2024-01-30T09:28:22;16.60;;;6.50;;
21046;SDS011;10682;50.874;3.656;2024-01-30T09:30:53;11.87;;;5.33;;
21046;SDS011;10682;50.874;3.656;2024-01-30T09:33:20;12.47;;;5.40;;
21046;SDS011;10682;50.874;3.656;2024-01-30T09:35:47;8.83;;;2.43;;
21046;SDS011;10682;50.874;3.656;2024-01-30T09:38:14;9.13;;;2.30;;
21046;SDS011;10682;50.874;3.656;2024-01-30T09:40:41;11.37;;;1.77;;
21046;SDS011;10682;50.874;3.656;2024-01-30T09:43:09;7.63;;;1.50;;
21046;SDS011;10682;50.874;3.656;2024-01-30T09:45:44;4.87;;;1.30;;
21046;SDS011;10682;50.874;3.656;2024-01-30T09:48:13;10.70;;;1.70;;
21046;SDS011;10682;50.874;3.656;2024-01-30T09:50:41;5.43;;;1.60;;
21046;SDS011;10682;50.874;3.656;2024-01-30T09:53:12;7.87;;;1.40;;
21046;SDS011;10682;50.874;3.656;2024-01-30T09:55:46;4.80;;;1.53;;
21046;SDS011;10682;50.874;3.656;2024-01-30T09:58:16;9.73;;;1.53;;
21046;SDS011;10682;50.874;3.656;2024-01-30T10:00:43;9.17;;;1.30;;
21046;SDS011;10682;50.874;3.656;2024-01-30T10:06:30;2.57;;;0.87;;
21046;SDS011;10682;50.874;3.656;2024-01-30T10:09:08;4.90;;;0.80;;
21046;SDS011;10682;50.874;3.656;2024-01-30T10:11:36;2.70;;;0.70;;
21046;SDS011;10682;50.874;3.656;2024-01-30T10:14:03;2.90;;;0.70;;
21046;SDS011;10682;50.874;3.656;2024-01-30T10:16:30;3.33;;;0.60;;
21046;SDS011;10682;50.874;3.656;2024-01-30T10:18:57;1.43;;;0.60;;
21046;SDS011;10682;50.874;3.656;2024-01-30T10:21:25;2.80;;;0.80;;
21046;SDS011;10682;50.874;3.656;2024-01-30T10:23:52;3.93;;;0.90;;
21046;SDS011;10682;50.874;3.656;2024-01-30T10:26:19;6.80;;;0.87;;
21046;SDS011;10682;50.874;3.656;2024-01-30T10:28:47;5.27;;;1.30;;
21046;SDS011;10682;50.874;3.656;2024-01-30T10:31:18;4.53;;;1.20;;
21046;SDS011;10682;50.874;3.656;2024-01-30T10:33:48;5.27;;;0.93;;
21046;SDS011;10682;50.874;3.656;2024-01-30T10:36:15;11.33;;;1.60;;
21046;SDS011;10682;50.874;3.656;2024-01-30T10:38:46;3.77;;;0.97;;
21046;SDS011;10682;50.874;3.656;2024-01-30T10:41:18;9.47;;;1.23;;
21046;SDS011;10682;50.874;3.656;2024-01-30T10:44:02;3.70;;;1.07;;
21046;SDS011;10682;50.874;3.656;2024-01-30T10:46:37;4.13;;;1.07;;
21046;SDS011;10682;50.874;3.656;2024-01-30T10:49:05;6.57;;;1.07;;
21046;SDS011;10682;50.874;3.656;2024-01-30T10:51:33;3.80;;;0.90;;
21046;SDS011;10682;50.874;3.656;2024-01-30T10:54:02;5.73;;;0.90;;
21046;SDS011;10682;50.874;3.656;2024-01-30T10:56:32;4.10;;;1.00;;
21046;SDS011;10682;50.874;3.656;2024-01-30T10:59:00;5.77;;;0.97;;
21046;SDS011;10682;50.874;3.656;2024-01-30T11:01:27;5.83;;;1.00;;
21046;SDS011;10682;50.874;3.656;2024-01-30T11:03:55;8.40;;;1.00;;
21046;SDS011;10682;50.874;3.656;2024-01-30T11:06:24;4.60;;;1.00;;
21046;SDS011;10682;50.874;3.656;2024-01-30T11:09:05;2.93;;;0.80;;
21046;SDS011;10682;50.874;3.656;2024-01-30T11:14:31;5.77;;;1.00;;
21046;SDS011;10682;50.874;3.656;2024-01-30T11:16:59;3.30;;;0.90;;
21046;SDS011;10682;50.874;3.656;2024-01-30T11:19:26;6.10;;;0.70;;
21046;SDS011;10682;50.874;3.656;2024-01-30T11:21:57;4.17;;;0.80;;
21046;SDS011;10682;50.874;3.656;2024-01-30T11:24:24;4.30;;;0.87;;
21046;SDS011;10682;50.874;3.656;2024-01-30T11:26:56;8.30;;;1.10;;
21046;SDS011;10682;50.874;3.656;2024-01-30T11:29:25;4.27;;;0.77;;
21046;SDS011;10682;50.874;3.656;2024-01-30T11:31:58;3.73;;;0.80;;
21046;SDS011;10682;50.874;3.656;2024-01-30T11:34:25;9.40;;;1.10;;
21046;SDS011;10682;50.874;3.656;2024-01-30T11:36:56;3.57;;;0.83;;
21046;SDS011;10682;50.874;3.656;2024-01-30T11:39:26;6.03;;;0.90;;
21046;SDS011;10682;50.874;3.656;2024-01-30T11:41:54;5.47;;;0.80;;
21046;SDS011;10682;50.874;3.656;2024-01-30T11:47:30;5.83;;;0.93;;
21046;SDS011;10682;50.874;3.656;2024-01-30T11:53:09;4.87;;;0.87;;
21046;SDS011;10682;50.874;3.656;2024-01-30T11:55:36;3.60;;;1.10;;
21046;SDS011;10682;50.874;3.656;2024-01-30T11:58:04;4.37;;;0.80;;
21046;SDS011;10682;50.874;3.656;2024-01-30T12:00:32;6.30;;;1.30;;
21046;SDS011;10682;50.874;3.656;2024-01-30T12:03:00;9.40;;;1.03;;
21046;SDS011;10682;50.874;3.656;2024-01-30T12:05:29;5.63;;;1.10;;
21046;SDS011;10682;50.874;3.656;2024-01-30T12:07:57;4.33;;;0.70;;
21046;SDS011;10682;50.874;3.656;2024-01-30T12:10:27;3.03;;;0.83;;
21046;SDS011;10682;50.874;3.656;2024-01-30T12:12:54;3.13;;;0.70;;
21046;SDS011;10682;50.874;3.656;2024-01-30T12:15:22;5.77;;;1.00;;
21046;SDS011;10682;50.874;3.656;2024-01-30T12:17:51;5.13;;;1.10;;
21046;SDS011;10682;50.874;3.656;2024-01-30T12:20:36;5.30;;;1.10;;
21046;SDS011;10682;50.874;3.656;2024-01-30T12:23:03;4.67;;;1.00;;
21046;SDS011;10682;50.874;3.656;2024-01-30T12:25:30;3.27;;;0.77;;
21046;SDS011;10682;50.874;3.656;2024-01-30T12:27:58;5.90;;;0.80;;
21046;SDS011;10682;50.874;3.656;2024-01-30T12:30:38;4.57;;;1.13;;
21046;SDS011;10682;50.874;3.656;2024-01-30T12:33:05;6.33;;;1.10;;
21046;SDS011;10682;50.874;3.656;2024-01-30T12:35:35;5.93;;;1.30;;
21046;SDS011;10682;50.874;3.656;2024-01-30T12:38:11;5.30;;;1.60;;
21046;SDS011;10682;50.874;3.656;2024-01-30T12:40:38;3.33;;;1.37;;
21046;SDS011;10682;50.874;3.656;2024-01-30T12:43:07;4.40;;;1.10;;
21046;SDS011;10682;50.874;3.656;2024-01-30T12:45:35;3.27;;;1.50;;
21046;SDS011;10682;50.874;3.656;2024-01-30T12:48:03;7.20;;;1.30;;
21046;SDS011;10682;50.874;3.656;2024-01-30T12:50:30;4.77;;;1.23;;
21046;SDS011;10682;50.874;3.656;2024-01-30T12:52:57;7.87;;;1.90;;
21046;SDS011;10682;50.874;3.656;2024-01-30T12:55:25;4.00;;;1.20;;
21046;SDS011;10682;50.874;3.656;2024-01-30T12:57:54;7.63;;;1.10;;
21046;SDS011;10682;50.874;3.656;2024-01-30T13:00:22;5.20;;;1.07;;
21046;SDS011;10682;50.874;3.656;2024-01-30T13:02:49;7.30;;;1.20;;
21046;SDS011;10682;50.874;3.656;2024-01-30T13:05:16;5.13;;;0.90;;
21046;SDS011;10682;50.874;3.656;2024-01-30T13:07:44;6.17;;;1.20;;
21046;SDS011;10682;50.874;3.656;2024-01-30T13:10:11;5.00;;;1.10;;
21046;SDS011;10682;50.874;3.656;2024-01-30T13:12:38;6.07;;;1.43;;
21046;SDS011;10682;50.874;3.656;2024-01-30T13:15:06;9.37;;;1.70;;
21046;SDS011;10682;50.874;3.656;2024-01-30T13:17:34;6.40;;;1.70;;
21046;SDS011;10682;50.874;3.656;2024-01-30T13:20:02;6.73;;;1.60;;
21046;SDS011;10682;50.874;3.656;2024-01-30T13:22:37;7.50;;;1.70;;
21046;SDS011;10682;50.874;3.656;2024-01-30T13:25:06;4.73;;;1.50;;
21046;SDS011;10682;50.874;3.656;2024-01-30T13:27:50;3.80;;;1.77;;
21046;SDS011;10682;50.874;3.656;2024-01-30T13:30:17;5.47;;;1.10;;
21046;SDS011;10682;50.874;3.656;2024-01-30T13:32:53;21.23;;;8.60;;
21046;SDS011;10682;50.874;3.656;2024-01-30T13:35:20;13.77;;;4.00;;
21046;SDS011;10682;50.874;3.656;2024-01-30T13:37:48;6.33;;;1.83;;
21046;SDS011;10682;50.874;3.656;2024-01-30T13:40:15;6.27;;;1.20;;
21046;SDS011;10682;50.874;3.656;2024-01-30T13:42:43;8.40;;;3.77;;
21046;SDS011;10682;50.874;3.656;2024-01-30T13:45:10;5.57;;;2.47;;
21046;SDS011;10682;50.874;3.656;2024-01-30T13:47:37;9.27;;;1.37;;
21046;SDS011;10682;50.874;3.656;2024-01-30T13:50:05;12.73;;;4.80;;
21046;SDS011;10682;50.874;3.656;2024-01-30T13:52:33;8.37;;;2.23;;
21046;SDS011;10682;50.874;3.656;2024-01-30T13:55:10;6.97;;;2.90;;
21046;SDS011;10682;50.874;3.656;2024-01-30T13:57:37;6.53;;;1.73;;
21046;SDS011;10682;50.874;3.656;2024-01-30T14:00:05;4.07;;;1.40;;
21046;SDS011;10682;50.874;3.656;2024-01-30T14:02:33;9.53;;;1.60;;
21046;SDS011;10682;50.874;3.656;2024-01-30T14:05:00;5.43;;;1.80;;
21046;SDS011;10682;50.874;3.656;2024-01-30T14:07:41;5.70;;;1.43;;
21046;SDS011;10682;50.874;3.656;2024-01-30T14:10:10;7.23;;;1.60;;
21046;SDS011;10682;50.874;3.656;2024-01-30T14:12:41;8.00;;;1.47;;
21046;SDS011;10682;50.874;3.656;2024-01-30T14:15:10;3.97;;;1.43;;
21046;SDS011;10682;50.874;3.656;2024-01-30T14:17:53;7.27;;;1.63;;
21046;SDS011;10682;50.874;3.656;2024-01-30T14:23:02;4.97;;;1.20;;
21046;SDS011;10682;50.874;3.656;2024-01-30T14:25:30;5.10;;;1.33;;
21046;SDS011;10682;50.874;3.656;2024-01-30T14:27:57;6.53;;;1.60;;
21046;SDS011;10682;50.874;3.656;2024-01-30T14:30:24;8.83;;;2.07;;
21046;SDS011;10682;50.874;3.656;2024-01-30T14:32:51;5.57;;;1.30;;
21046;SDS011;10682;50.874;3.656;2024-01-30T14:35:19;6.43;;;2.03;;
21046;SDS011;10682;50.874;3.656;2024-01-30T14:37:47;6.03;;;1.50;;
21046;SDS011;10682;50.874;3.656;2024-01-30T14:40:14;7.20;;;1.60;;
21046;SDS011;10682;50.874;3.656;2024-01-30T14:42:41;12.10;;;2.63;;
21046;SDS011;10682;50.874;3.656;2024-01-30T14:45:09;13.97;;;8.90;;
21046;SDS011;10682;50.874;3.656;2024-01-30T14:47:38;14.43;;;5.07;;
21046;SDS011;10682;50.874;3.656;2024-01-30T14:50:05;7.53;;;2.43;;
21046;SDS011;10682;50.874;3.656;2024-01-30T14:52:35;5.97;;;2.43;;
21046;SDS011;10682;50.874;3.656;2024-01-30T14:55:04;5.50;;;2.10;;
21046;SDS011;10682;50.874;3.656;2024-01-30T14:57:31;5.00;;;1.37;;
21046;SDS011;10682;50.874;3.656;2024-01-30T15:00:01;7.40;;;1.67;;
21046;SDS011;10682;50.874;3.656;2024-01-30T15:02:28;7.13;;;1.50;;
21046;SDS011;10682;50.874;3.656;2024-01-30T15:04:55;8.30;;;1.90;;
21046;SDS011;10682;50.874;3.656;2024-01-30T15:07:23;15.07;;;9.87;;
21046;SDS011;10682;50.874;3.656;2024-01-30T15:13:15;7.13;;;2.13;;
21046;SDS011;10682;50.874;3.656;2024-01-30T15:15:50;8.97;;;2.70;;
21046;SDS011;10682;50.874;3.656;2024-01-30T15:18:17;6.27;;;2.40;;
21046;SDS011;10682;50.874;3.656;2024-01-30T15:20:44;7.87;;;2.80;;
21046;SDS011;10682;50.874;3.656;2024-01-30T15:23:11;8.40;;;2.60;;
21046;SDS011;10682;50.874;3.656;2024-01-30T15:25:38;11.60;;;2.73;;
21046;SDS011;10682;50.874;3.656;2024-01-30T15:28:05;9.30;;;2.67;;
21046;SDS011;10682;50.874;3.656;2024-01-30T15:30:33;12.40;;;2.50;;
21046;SDS011;10682;50.874;3.656;2024-01-30T15:33:00;8.30;;;2.40;;
21046;SDS011;10682;50.874;3.656;2024-01-30T15:35:28;9.53;;;2.80;;
21046;SDS011;10682;50.874;3.656;2024-01-30T15:37:55;7.93;;;3.37;;
21046;SDS011;10682;50.874;3.656;2024-01-30T15:40:22;8.97;;;4.67;;